FW3268 Weather Reports


Display with metric or nautical units.
time (UTC)temp
F
wind
direction
speed
MPH
gust
MPH
rain 1hr
in
rain 24hr
in
rain mn
in
humidity
%
barometer
mb
20240625093000 72 181 6.0 11.0 0.00 0.00 0.00 73 1010.0
20240625090004 72 228 5.0 10.0 0.00 0.00 0.00 74 1010.8
20240625084502 72 218 6.0 10.0 0.00 0.00 0.00 75 1011.4
20240625082959 71 233 4.0 8.0 0.00 0.00 0.00 76 1011.6
20240625081459 72 221 4.0 9.0 0.00 0.00 0.00 76 1011.5
20240625080001 72 233 7.0 12.0 0.00 0.00 0.00 75 1011.0
20240625074458 71 229 8.0 14.0 0.00 0.00 0.00 78 1010.6
20240625072958 70 217 5.0 8.0 0.00 0.00 0.00 80 1011.3
20240625071458 69 184 4.0 7.0 0.00 0.00 0.00 81 1012.1
20240625070003 68 174 0.0 2.0 0.00 0.00 0.00 83 1012.5
20240625064459 68 146 0.0 1.0 0.00 0.00 0.00 83 1012.7
20240625062958 68 151 2.0 4.0 0.00 0.00 0.00 82 1012.8
20240625061458 68 147 2.0 3.0 0.00 0.00 0.00 83 1012.8
20240625060002 69 130 0.0 1.0 0.00 0.00 0.00 82 1013.7
20240625054459 70 152 0.0 0.0 0.00 0.00 0.00 81 1014.4
20240625053001 71 152 0.0 0.0 0.00 0.00 0.00 79 1014.7
20240625051458 70 152 0.0 0.0 0.00 0.00 0.00 77 1014.6
20240625050004 70 152 0.0 1.0 0.00 0.00 0.00 79 1014.1
20240625044501 71 123 0.0 0.0 0.00 0.00 0.00 77 1014.1
20240625043000 70 127 0.0 0.0 0.00 0.00 0.00 79 1013.9
20240625041501 71 127 0.0 1.0 0.00 0.00 0.00 77 1013.8
20240625040008 71 158 0.0 0.0 0.00 0.00 0.00 77 1013.8
20240625034501 71 158 0.0 0.0 0.00 0.00 0.00 78 1013.7
20240625023000 73 141 0.0 1.0 0.00 0.00 0.00 76 1013.3
20240625021500 74 111 0.0 1.0 0.00 0.00 0.00 73 1013.3
20240625014501 76 125 0.0 2.0 0.00 0.00 0.00 67 1013.1
20240625013000 75 135 1.0 2.0 0.00 0.00 0.00 73 1013.1
20240625011502 77 111 0.0 2.0 0.00 0.00 0.00 71 1013.3
20240625004500 80 273 0.0 0.0 0.00 0.00 0.00 62 1013.6
20240625000004 81 252 0.0 2.0 0.00 0.00 0.00 60 1013.7
20240624234519 82 297 1.0 2.0 0.00 0.00 0.00 58 1013.7
20240624233000 82 278 2.0 4.0 0.00 0.00 0.00 56 1013.7
20240624231501 82 291 1.0 4.0 0.00 0.00 0.00 54 1013.7
20240624230005 83 270 0.0 1.0 0.00 0.00 0.00 59 1013.7
20240624224501 82 275 2.0 5.0 0.00 0.00 0.00 54 1013.7
20240624223000 83 290 1.0 4.0 0.00 0.00 0.00 56 1014.0
20240624221500 83 297 2.0 6.0 0.00 0.00 0.00 53 1014.0
20240624214501 83 302 3.0 5.0 0.00 0.00 0.00 55 1014.4
20240624211501 84 286 2.0 8.0 0.00 0.00 0.00 56 1014.7
20240624210005 84 345 1.0 4.0 0.00 0.00 0.00 56 1014.6
20240624204500 83 286 1.0 5.0 0.00 0.00 0.00 54 1014.7
20240624201500 84 32 0.0 2.0 0.00 0.00 0.00 52 1014.8
20240624200005 84 328 0.0 1.0 0.00 0.00 0.00 55 1014.9
20240624193000 83 271 1.0 3.0 0.00 0.00 0.00 55 1015.0
20240624191500 82 49 0.0 2.0 0.00 0.00 0.00 59 1015.2
20240624184500 82 287 0.0 2.0 0.00 0.00 0.00 59 1015.2
20240624183000 83 20 1.0 4.0 0.00 0.00 0.00 59 1015.3
20240624180003 82 293 0.0 1.0 0.00 0.00 0.00 58 1015.3
20240624174459 82 317 0.0 2.0 0.00 0.00 0.00 57 1015.4
20240624173000 81 290 1.0 5.0 0.00 0.00 0.00 60 1015.4
20240624171500 80 324 0.0 2.0 0.00 0.00 0.00 58 1015.5
20240624170004 80 321 0.0 3.0 0.00 0.00 0.00 57 1015.5
20240624163000 80 58 0.0 2.0 0.00 0.00 0.00 60 1015.3
20240624161501 79 266 1.0 4.0 0.00 0.00 0.00 61 1015.4
20240624160004 78 322 1.0 5.0 0.00 0.00 0.00 64 1015.4
20240624154501 78 281 1.0 3.0 0.00 0.00 0.00 63 1015.4
20240624153000 77 293 1.0 4.0 0.00 0.00 0.00 61 1015.2
20240624151500 76 259 3.0 6.0 0.00 0.00 0.00 67 1015.3
20240624150003 75 276 1.0 5.0 0.00 0.00 0.00 67 1015.3
20240624144459 74 321 1.0 4.0 0.00 0.00 0.00 70 1015.4
20240624143000 74 290 0.0 3.0 0.00 0.00 0.00 72 1015.2
20240624141459 73 304 0.0 2.0 0.00 0.00 0.00 72 1015.3
20240624140002 72 325 0.0 4.0 0.00 0.00 0.00 72 1015.4
20240624134459 72 341 0.0 1.0 0.00 0.00 0.00 74 1015.3
20240624131459 70 290 0.0 2.0 0.00 0.00 0.00 81 1015.3
20240624130003 69 300 0.0 1.0 0.00 0.00 0.00 83 1015.2
20240624124459 68 314 1.0 3.0 0.00 0.00 0.00 85 1015.0
20240624122959 67 299 1.0 3.0 0.00 0.00 0.00 88 1014.7
20240624121459 66 312 2.0 4.0 0.00 0.00 0.00 88 1014.8
20240624120002 65 296 1.0 2.0 0.00 0.00 0.00 90 1014.6
20240624112958 62 265 0.0 0.0 0.00 0.00 0.00 93 1014.2
20240624111459 62 265 0.0 0.0 0.00 0.00 0.00 92 1014.1
20240624110002 61 265 0.0 0.0 0.00 0.00 0.00 92 1014.0
20240624103000 61 265 0.0 0.0 0.00 0.02 0.00 92 1013.6
20240624100003 61 265 0.0 0.0 0.00 0.02 0.00 92 1013.5